createdAt,value
2019-06-25T00:01:33.906Z,7.00
2019-06-25T00:04:02.899Z,6.60
2019-06-25T00:06:31.899Z,6.80
2019-06-25T00:09:00.838Z,6.60
2019-06-25T00:11:29.939Z,6.83
2019-06-25T00:13:58.882Z,7.30
2019-06-25T00:16:27.869Z,6.93
2019-06-25T00:18:56.911Z,6.30
2019-06-25T00:21:26.045Z,6.80
2019-06-25T00:23:54.988Z,6.57
2019-06-25T00:26:23.953Z,6.73
2019-06-25T00:28:52.941Z,6.90
2019-06-25T00:31:21.916Z,6.87
2019-06-25T00:33:50.964Z,7.20
2019-06-25T00:36:20.031Z,7.10
2019-06-25T00:38:49.147Z,6.07
2019-06-25T00:41:18.126Z,6.37
2019-06-25T00:43:47.104Z,6.80
2019-06-25T00:46:16.102Z,6.23
2019-06-25T00:48:45.029Z,6.50
2019-06-25T00:51:14.112Z,6.10
2019-06-25T00:53:43.004Z,5.93
2019-06-25T00:56:11.912Z,6.30
2019-06-25T00:58:40.864Z,7.23
2019-06-25T01:01:09.885Z,6.20
2019-06-25T01:03:42.059Z,6.17
2019-06-25T01:06:11.131Z,5.93
2019-06-25T01:08:40.180Z,5.93
2019-06-25T01:11:09.118Z,5.67
2019-06-25T01:13:38.180Z,6.00
2019-06-25T01:16:07.142Z,6.13
2019-06-25T01:18:36.135Z,5.60
2019-06-25T01:21:05.192Z,5.80
2019-06-25T01:23:34.171Z,6.27
2019-06-25T01:26:03.233Z,7.00
2019-06-25T01:28:32.162Z,6.83
2019-06-25T01:31:01.081Z,7.03
2019-06-25T01:33:30.125Z,6.80
2019-06-25T01:35:59.152Z,6.70
2019-06-25T01:38:28.199Z,7.40
2019-06-25T01:40:57.088Z,6.87
2019-06-25T01:43:25.926Z,7.77
2019-06-25T01:45:54.935Z,6.77
2019-06-25T01:48:23.910Z,7.47
2019-06-25T01:50:52.870Z,6.53
2019-06-25T01:53:21.913Z,6.97
2019-06-25T01:55:51.037Z,7.70
2019-06-25T01:58:20.108Z,7.83
2019-06-25T02:00:49.179Z,7.90
2019-06-25T02:03:18.206Z,7.17
2019-06-25T02:05:47.159Z,8.30
2019-06-25T02:08:16.224Z,8.17
2019-06-25T02:10:45.306Z,7.90
2019-06-25T02:13:14.349Z,8.03
2019-06-25T02:15:43.374Z,7.50
2019-06-25T02:18:12.301Z,8.23
2019-06-25T02:20:41.221Z,7.63
2019-06-25T02:23:10.266Z,8.80
2019-06-25T02:25:39.286Z,7.67
2019-06-25T02:28:08.353Z,7.80
2019-06-25T02:30:37.672Z,8.60
2019-06-25T02:33:06.662Z,8.40
2019-06-25T02:35:35.666Z,7.90
2019-06-25T02:38:04.633Z,8.20
2019-06-25T02:40:33.713Z,7.70
2019-06-25T02:43:02.588Z,7.70
2019-06-25T02:45:31.677Z,8.27
2019-06-25T02:48:00.604Z,8.07
2019-06-25T02:50:29.548Z,9.20
2019-06-25T02:52:58.529Z,8.07
2019-06-25T02:55:27.597Z,8.40
2019-06-25T02:57:56.497Z,8.60
2019-06-25T03:00:25.580Z,9.03
2019-06-25T03:02:54.557Z,8.50
2019-06-25T03:05:23.568Z,8.37
2019-06-25T03:07:52.632Z,8.23
2019-06-25T03:10:21.762Z,8.00
2019-06-25T03:12:50.823Z,8.10
2019-06-25T03:15:19.972Z,8.37
2019-06-25T03:17:48.969Z,8.37
2019-06-25T03:20:22.105Z,9.00
2019-06-25T03:22:51.225Z,8.60
2019-06-25T03:25:20.252Z,8.40
2019-06-25T03:27:49.239Z,8.70
2019-06-25T03:30:18.128Z,8.00
2019-06-25T03:32:47.197Z,8.70
2019-06-25T03:35:16.172Z,8.63
2019-06-25T03:37:45.227Z,8.27
2019-06-25T03:40:14.160Z,8.40
2019-06-25T03:42:43.208Z,8.10
2019-06-25T03:45:12.211Z,9.40
2019-06-25T03:47:41.092Z,8.30
2019-06-25T03:50:10.175Z,9.00
2019-06-25T03:52:39.163Z,9.40
2019-06-25T03:55:08.347Z,9.30
2019-06-25T03:57:37.245Z,8.47
2019-06-25T04:00:06.929Z,8.77
2019-06-25T04:02:35.971Z,9.20
2019-06-25T04:05:05.175Z,8.93
2019-06-25T04:07:34.152Z,9.60
2019-06-25T04:10:03.166Z,8.83
2019-06-25T04:12:32.087Z,8.47
2019-06-25T04:15:01.592Z,9.07
2019-06-25T04:17:30.607Z,9.50
2019-06-25T04:19:59.526Z,8.27
2019-06-25T04:22:28.508Z,8.53
2019-06-25T04:24:57.576Z,8.37
2019-06-25T04:27:26.589Z,8.63
2019-06-25T04:29:55.641Z,9.57
2019-06-25T04:32:33.307Z,8.80
2019-06-25T04:34:55.291Z,8.70
2019-06-25T04:37:25.237Z,8.50
2019-06-25T04:39:54.210Z,8.33
2019-06-25T04:42:23.291Z,7.60
2019-06-25T04:44:52.385Z,7.30
2019-06-25T04:47:21.488Z,7.70
2019-06-25T04:49:50.651Z,7.80
2019-06-25T04:52:20.004Z,8.73
2019-06-25T04:54:49.322Z,8.13
2019-06-25T04:57:18.361Z,8.10
2019-06-25T04:59:47.342Z,7.67
2019-06-25T05:02:16.631Z,8.87
2019-06-25T05:04:45.772Z,9.20
2019-06-25T05:07:15.058Z,8.20
2019-06-25T05:09:43.973Z,7.40
2019-06-25T05:12:13.216Z,8.03
2019-06-25T05:14:42.757Z,7.70
2019-06-25T05:17:11.851Z,8.33
2019-06-25T05:19:40.955Z,7.70
2019-06-25T05:22:09.852Z,8.13
2019-06-25T05:24:39.039Z,7.43
2019-06-25T05:27:08.070Z,7.57
2019-06-25T05:29:37.041Z,8.90
2019-06-25T05:32:06.219Z,8.43
2019-06-25T05:34:35.346Z,7.20
2019-06-25T05:37:12.470Z,7.27
2019-06-25T05:39:41.465Z,6.77
2019-06-25T05:42:10.498Z,7.20
2019-06-25T05:44:39.601Z,6.77
2019-06-25T05:47:08.838Z,6.80
2019-06-25T05:49:37.951Z,6.73
2019-06-25T05:52:07.069Z,7.40
2019-06-25T05:54:36.126Z,6.73
2019-06-25T05:57:05.295Z,6.70
2019-06-25T05:59:37.065Z,5.83
2019-06-25T06:02:05.265Z,5.90
2019-06-25T06:04:34.406Z,6.73
2019-06-25T06:07:03.566Z,5.77
2019-06-25T06:09:32.593Z,5.63
2019-06-25T06:12:01.718Z,6.87
2019-06-25T06:14:30.738Z,5.90
2019-06-25T06:16:59.829Z,5.87
2019-06-25T06:19:29.122Z,6.00
2019-06-25T06:21:58.259Z,6.43
2019-06-25T06:24:27.326Z,6.73
2019-06-25T06:26:56.548Z,5.80
2019-06-25T06:29:25.609Z,5.97
2019-06-25T06:31:54.713Z,6.33
2019-06-25T06:34:23.832Z,5.60
2019-06-25T06:36:52.946Z,5.97
2019-06-25T06:39:22.027Z,6.03
2019-06-25T06:41:51.217Z,6.67
2019-06-25T06:44:20.253Z,5.90
2019-06-25T06:46:49.117Z,5.60
2019-06-25T06:49:18.382Z,5.40
2019-06-25T06:51:47.413Z,5.50
2019-06-25T06:54:16.590Z,5.10
2019-06-25T06:56:45.858Z,5.80
2019-06-25T06:59:15.102Z,5.73
2019-06-25T07:01:44.269Z,5.87
2019-06-25T07:04:13.295Z,5.60
2019-06-25T07:06:42.300Z,5.27
2019-06-25T07:09:11.419Z,5.37
2019-06-25T07:11:40.485Z,5.90
2019-06-25T07:14:09.545Z,5.63
2019-06-25T07:16:39.481Z,5.80
2019-06-25T07:19:08.707Z,5.57
2019-06-25T07:21:37.871Z,5.90
2019-06-25T07:24:07.007Z,5.50
2019-06-25T07:26:36.087Z,6.20
2019-06-25T07:29:05.276Z,5.60
2019-06-25T07:31:34.260Z,5.57
2019-06-25T07:34:09.184Z,6.07
2019-06-25T07:36:34.180Z,5.80
2019-06-25T07:39:03.415Z,5.20
2019-06-25T07:41:32.497Z,5.70
2019-06-25T07:44:01.571Z,5.40
2019-06-25T07:46:30.653Z,5.43
2019-06-25T07:48:59.773Z,5.50
2019-06-25T07:51:28.856Z,5.80
2019-06-25T07:53:58.026Z,5.73
2019-06-25T07:56:36.526Z,5.47
2019-06-25T07:58:58.098Z,5.47
2019-06-25T08:01:27.293Z,6.03
2019-06-25T08:03:56.385Z,5.40
2019-06-25T08:06:25.386Z,6.03
2019-06-25T08:08:54.362Z,6.00
2019-06-25T08:11:23.488Z,6.10
2019-06-25T08:13:52.555Z,6.33
2019-06-25T08:16:21.540Z,6.43
2019-06-25T08:18:50.526Z,6.27
2019-06-25T08:21:19.621Z,6.70
2019-06-25T08:23:48.633Z,6.77
2019-06-25T08:26:17.639Z,6.43
2019-06-25T08:28:46.814Z,6.20
2019-06-25T08:31:15.874Z,6.30
2019-06-25T08:33:45.029Z,6.30
2019-06-25T08:36:14.090Z,6.47
2019-06-25T08:38:43.257Z,5.80
2019-06-25T08:41:12.184Z,6.50
2019-06-25T08:43:41.198Z,5.97
2019-06-25T08:46:10.174Z,6.53
2019-06-25T08:48:39.768Z,6.33
2019-06-25T08:51:08.983Z,6.00
2019-06-25T08:53:38.057Z,5.90
2019-06-25T08:56:07.062Z,6.10
2019-06-25T08:58:36.050Z,6.53
2019-06-25T09:01:05.081Z,6.33
2019-06-25T09:03:34.201Z,6.10
2019-06-25T09:06:04.123Z,5.60
2019-06-25T09:08:33.463Z,5.80
2019-06-25T09:11:02.475Z,6.50
2019-06-25T09:13:31.557Z,6.77
2019-06-25T09:16:00.640Z,6.17
2019-06-25T09:18:29.688Z,5.80
2019-06-25T09:20:58.842Z,6.43
2019-06-25T09:23:27.930Z,6.10
2019-06-25T09:25:56.954Z,7.57
2019-06-25T09:28:26.131Z,6.43
2019-06-25T09:30:57.239Z,6.73
2019-06-25T09:33:26.175Z,6.20
2019-06-25T09:35:55.256Z,6.70
2019-06-25T09:38:24.301Z,7.07
2019-06-25T09:40:52.267Z,6.60
2019-06-25T09:43:20.248Z,6.40
2019-06-25T09:45:49.369Z,6.73
2019-06-25T09:48:18.446Z,6.33
2019-06-25T09:50:47.617Z,6.50
2019-06-25T09:53:16.613Z,7.00
2019-06-25T09:55:47.436Z,6.63
2019-06-25T09:58:16.555Z,7.70
2019-06-25T10:00:53.448Z,7.47
2019-06-25T10:03:22.451Z,6.70
2019-06-25T10:05:52.350Z,6.47
2019-06-25T10:08:21.369Z,7.00
2019-06-25T10:10:50.468Z,6.60
2019-06-25T10:13:19.469Z,6.13
2019-06-25T10:15:48.584Z,8.20
2019-06-25T10:18:17.805Z,7.10
2019-06-25T10:20:46.861Z,7.10
2019-06-25T10:23:15.835Z,7.00
2019-06-25T10:25:44.947Z,7.97
2019-06-25T10:28:28.717Z,7.60
2019-06-25T10:30:51.734Z,6.97
2019-06-25T10:33:20.955Z,7.20
2019-06-25T10:35:50.112Z,8.17
2019-06-25T10:38:20.812Z,8.00
2019-06-25T10:40:49.851Z,7.27
2019-06-25T10:43:18.796Z,6.93
2019-06-25T10:45:47.956Z,6.60
2019-06-25T10:48:17.164Z,7.20
2019-06-25T10:50:46.346Z,6.30
2019-06-25T10:53:15.443Z,6.70
2019-06-25T10:55:44.414Z,6.43
2019-06-25T10:58:13.483Z,6.50
2019-06-25T11:00:53.047Z,6.90
2019-06-25T11:03:22.050Z,6.47
2019-06-25T11:06:04.113Z,7.00
2019-06-25T11:08:21.965Z,6.30
2019-06-25T11:10:51.079Z,6.90
2019-06-25T11:13:20.129Z,6.10
2019-06-25T11:15:49.169Z,6.80
2019-06-25T11:18:18.443Z,6.33
2019-06-25T11:20:47.458Z,6.63
2019-06-25T11:23:16.504Z,6.30
2019-06-25T11:26:03.865Z,7.10
2019-06-25T11:28:16.400Z,6.70
2019-06-25T11:30:47.348Z,6.67
2019-06-25T11:33:16.453Z,6.50
2019-06-25T11:35:45.545Z,7.83
2019-06-25T11:38:15.769Z,6.80
2019-06-25T11:40:44.882Z,7.17
2019-06-25T11:43:13.889Z,6.77
2019-06-25T11:45:42.909Z,5.87
2019-06-25T11:48:12.016Z,6.43
2019-06-25T11:50:41.260Z,5.83
2019-06-25T11:53:10.305Z,6.50
2019-06-25T11:55:39.336Z,6.50
2019-06-25T11:58:08.431Z,6.23
2019-06-25T12:00:37.569Z,6.37
2019-06-25T12:03:06.645Z,5.97
2019-06-25T12:05:35.733Z,6.75
2019-06-25T12:08:04.825Z,6.90
2019-06-25T12:10:33.920Z,6.80
2019-06-25T12:13:03.003Z,6.80
2019-06-25T12:15:32.152Z,6.57
2019-06-25T12:18:01.271Z,6.00
2019-06-25T12:20:30.422Z,5.77
2019-06-25T12:22:59.560Z,5.43
2019-06-25T12:25:28.720Z,6.40
2019-06-25T12:27:57.922Z,6.23
2019-06-25T12:30:27.195Z,6.70
2019-06-25T12:32:56.450Z,6.40
2019-06-25T12:35:25.584Z,6.70
2019-06-25T12:37:54.704Z,5.83
2019-06-25T12:40:23.793Z,6.50
2019-06-25T12:42:52.836Z,6.47
2019-06-25T12:45:22.013Z,6.27
2019-06-25T12:48:00.844Z,6.10
2019-06-25T12:50:29.779Z,5.73
2019-06-25T12:53:16.274Z,6.30
2019-06-25T12:55:45.445Z,6.40
2019-06-25T12:58:14.578Z,6.40
2019-06-25T13:00:43.762Z,6.07
2019-06-25T13:03:12.849Z,5.90
2019-06-25T13:05:42.072Z,5.93
2019-06-25T13:08:11.159Z,6.00
2019-06-25T13:10:44.568Z,6.87
2019-06-25T13:13:11.035Z,6.63
2019-06-25T13:15:40.221Z,6.00
2019-06-25T13:18:12.345Z,6.70
2019-06-25T13:20:41.531Z,6.57
2019-06-25T13:23:10.608Z,5.73
2019-06-25T13:25:39.636Z,6.70
2019-06-25T13:28:09.070Z,6.40
2019-06-25T13:30:38.100Z,6.30
2019-06-25T13:33:07.174Z,5.90
2019-06-25T13:35:36.142Z,6.30
2019-06-25T13:38:05.214Z,6.00
2019-06-25T13:40:34.254Z,5.97
2019-06-25T13:43:03.527Z,6.28
2019-06-25T13:45:32.631Z,6.53
2019-06-25T13:48:11.076Z,6.20
2019-06-25T13:50:32.501Z,5.97
2019-06-25T13:53:01.741Z,5.77
2019-06-25T13:55:30.940Z,6.33
2019-06-25T13:58:00.024Z,5.67
2019-06-25T14:00:33.246Z,5.15
2019-06-25T14:03:02.447Z,5.62
2019-06-25T14:05:31.631Z,5.70
2019-06-25T14:08:04.554Z,5.33
2019-06-25T14:10:33.507Z,5.75
2019-06-25T14:13:02.597Z,5.40
2019-06-25T14:15:31.720Z,5.50
2019-06-25T14:18:00.886Z,5.50
2019-06-25T14:20:29.927Z,5.90
2019-06-25T14:22:59.109Z,5.40
2019-06-25T14:25:28.206Z,5.42
2019-06-25T14:27:57.346Z,5.85
2019-06-25T14:30:26.416Z,5.80
2019-06-25T14:32:55.559Z,5.42
2019-06-25T14:35:25.040Z,4.90
2019-06-25T14:37:56.169Z,5.30
2019-06-25T14:40:25.304Z,6.37
2019-06-25T14:42:54.410Z,5.80
2019-06-25T14:45:24.207Z,5.80
2019-06-25T14:47:53.131Z,5.80
2019-06-25T14:50:22.194Z,5.78
2019-06-25T14:52:51.297Z,5.92
2019-06-25T14:55:20.381Z,5.70
2019-06-25T14:57:49.458Z,6.75
2019-06-25T15:00:18.590Z,5.72
2019-06-25T15:02:47.673Z,5.92
2019-06-25T15:05:16.840Z,5.87
2019-06-25T15:07:45.923Z,5.70
2019-06-25T15:10:14.960Z,6.47
2019-06-25T15:12:44.030Z,6.05
2019-06-25T15:15:13.174Z,6.20
2019-06-25T15:17:42.282Z,5.37
2019-06-25T15:20:11.270Z,6.55
2019-06-25T15:22:40.696Z,5.75
2019-06-25T15:25:09.811Z,6.33
2019-06-25T15:27:39.028Z,6.72
2019-06-25T15:30:08.152Z,6.75
2019-06-25T15:32:37.204Z,6.53
2019-06-25T15:35:06.928Z,6.42
2019-06-25T15:37:36.141Z,6.47
2019-06-25T15:40:05.210Z,6.40
2019-06-25T15:42:34.304Z,6.70
2019-06-25T15:45:03.386Z,6.72
2019-06-25T15:47:32.431Z,6.17
2019-06-25T15:50:01.741Z,6.33
2019-06-25T15:52:30.912Z,6.70
2019-06-25T15:54:59.983Z,6.73
2019-06-25T15:57:28.997Z,6.50
2019-06-25T15:59:58.012Z,6.07
2019-06-25T16:02:27.089Z,5.40
2019-06-25T16:04:56.114Z,5.70
2019-06-25T16:07:25.276Z,5.47
2019-06-25T16:09:54.387Z,6.60
2019-06-25T16:12:23.485Z,5.37
2019-06-25T16:14:52.652Z,5.37
2019-06-25T16:17:21.671Z,5.83
2019-06-25T16:19:50.708Z,5.60
2019-06-25T16:22:19.902Z,5.57
2019-06-25T16:24:49.060Z,5.53
2019-06-25T16:27:18.086Z,5.50
2019-06-25T16:29:47.107Z,5.43
2019-06-25T16:32:16.511Z,6.00
2019-06-25T16:34:45.575Z,5.40
2019-06-25T16:37:15.042Z,5.10
2019-06-25T16:39:44.223Z,5.63
2019-06-25T16:42:13.383Z,5.00
2019-06-25T16:44:42.400Z,5.20
2019-06-25T16:47:11.369Z,5.27
2019-06-25T16:49:40.398Z,4.70
2019-06-25T16:52:09.658Z,5.33
2019-06-25T16:54:38.985Z,5.20
2019-06-25T16:57:08.179Z,4.60
2019-06-25T16:59:37.336Z,4.80
2019-06-25T17:02:06.371Z,4.13
2019-06-25T17:04:35.479Z,5.10
2019-06-25T17:07:04.664Z,4.50
2019-06-25T17:09:35.451Z,4.60
2019-06-25T17:12:04.475Z,4.30
2019-06-25T17:14:33.791Z,4.50
2019-06-25T17:17:02.748Z,5.13
2019-06-25T17:19:31.949Z,4.87
2019-06-25T17:22:00.975Z,4.70
2019-06-25T17:24:30.117Z,4.60
2019-06-25T17:26:59.117Z,4.70
2019-06-25T17:29:28.220Z,4.73
2019-06-25T17:31:57.292Z,5.03
2019-06-25T17:34:26.277Z,4.63
2019-06-25T17:36:55.648Z,4.63
2019-06-25T17:39:24.624Z,4.87
2019-06-25T17:41:53.720Z,4.73
2019-06-25T17:44:22.707Z,4.97
2019-06-25T17:46:51.725Z,4.40
2019-06-25T17:49:20.812Z,4.60
2019-06-25T17:51:50.027Z,5.00
2019-06-25T17:54:19.143Z,4.60
2019-06-25T17:56:48.236Z,4.50
2019-06-25T17:59:17.297Z,4.77
2019-06-25T18:01:46.409Z,4.70
2019-06-25T18:04:15.487Z,4.80
2019-06-25T18:06:44.585Z,4.93
2019-06-25T18:09:13.524Z,4.10
2019-06-25T18:11:42.804Z,4.93
2019-06-25T18:14:11.884Z,4.40
2019-06-25T18:16:41.150Z,4.63
2019-06-25T18:19:10.161Z,4.80
2019-06-25T18:21:39.260Z,4.30
2019-06-25T18:24:08.247Z,5.07
2019-06-25T18:26:37.435Z,5.10
2019-06-25T18:29:06.671Z,5.47
2019-06-25T18:31:35.612Z,5.10
2019-06-25T18:34:04.667Z,4.67
2019-06-25T18:36:33.715Z,4.73
2019-06-25T18:39:02.722Z,4.67
2019-06-25T18:41:31.797Z,4.50
2019-06-25T18:44:03.892Z,5.00
2019-06-25T18:46:32.897Z,5.20
2019-06-25T18:49:01.981Z,5.50
2019-06-25T18:51:31.042Z,5.60
2019-06-25T18:54:00.077Z,5.20
2019-06-25T18:56:29.443Z,4.10
2019-06-25T18:59:00.676Z,4.50
2019-06-25T19:01:29.833Z,5.57
2019-06-25T19:03:58.932Z,5.60
2019-06-25T19:06:27.974Z,4.60
2019-06-25T19:08:57.207Z,5.30
2019-06-25T19:11:26.250Z,5.03
2019-06-25T19:13:55.278Z,5.30
2019-06-25T19:16:24.333Z,4.80
2019-06-25T19:18:53.497Z,5.50
2019-06-25T19:21:22.462Z,6.10
2019-06-25T19:23:51.698Z,5.17
2019-06-25T19:26:20.803Z,5.50
2019-06-25T19:28:49.727Z,4.90
2019-06-25T19:31:18.819Z,5.80
2019-06-25T19:33:47.989Z,5.30
2019-06-25T19:36:17.107Z,5.33
2019-06-25T19:38:46.139Z,5.63
2019-06-25T19:41:15.172Z,4.87
2019-06-25T19:43:44.202Z,5.50
2019-06-25T19:46:13.296Z,5.57
2019-06-25T19:48:42.393Z,5.20
2019-06-25T19:51:11.392Z,5.10
2019-06-25T19:53:40.380Z,5.27
2019-06-25T19:56:09.510Z,6.40
2019-06-25T19:58:38.656Z,5.80
2019-06-25T20:01:07.663Z,5.07
2019-06-25T20:03:36.921Z,5.60
2019-06-25T20:06:06.164Z,5.30
2019-06-25T20:08:35.345Z,5.47
2019-06-25T20:11:12.713Z,4.93
2019-06-25T20:13:35.111Z,5.10
2019-06-25T20:16:05.267Z,5.40
2019-06-25T20:18:36.905Z,5.60
2019-06-25T20:21:14.483Z,6.00
2019-06-25T20:23:51.315Z,5.50
2019-06-25T20:26:21.750Z,5.60
2019-06-25T20:31:46.065Z,6.30
2019-06-25T20:34:15.171Z,5.43
2019-06-25T20:36:44.242Z,6.10
2019-06-25T20:39:13.339Z,6.17
2019-06-25T20:41:42.456Z,5.47
2019-06-25T20:44:14.195Z,5.97
2019-06-25T20:46:43.310Z,6.50
2019-06-25T20:49:12.443Z,6.13
2019-06-25T20:51:41.533Z,5.70
2019-06-25T20:54:10.633Z,6.07
2019-06-25T20:56:39.803Z,6.50
2019-06-25T20:59:11.628Z,6.10
2019-06-25T21:01:39.799Z,5.80
2019-06-25T21:04:08.919Z,6.30
2019-06-25T21:06:38.032Z,5.63
2019-06-25T21:09:07.709Z,6.00
2019-06-25T21:11:47.967Z,7.20
2019-06-25T21:14:07.494Z,6.83
2019-06-25T21:16:36.564Z,5.90
2019-06-25T21:19:05.731Z,6.17
2019-06-25T21:21:34.894Z,6.33
2019-06-25T21:24:03.969Z,6.40
2019-06-25T21:26:33.047Z,6.30
2019-06-25T21:29:02.106Z,6.40
2019-06-25T21:31:31.097Z,6.23
2019-06-25T21:34:00.147Z,5.90
2019-06-25T21:36:29.292Z,5.97
2019-06-25T21:38:58.360Z,5.67
2019-06-25T21:41:28.338Z,5.70
2019-06-25T21:43:57.538Z,6.07
2019-06-25T21:46:26.621Z,6.70
2019-06-25T21:48:55.573Z,6.30
2019-06-25T21:51:24.665Z,6.50
2019-06-25T21:53:53.676Z,6.80
2019-06-25T21:56:22.754Z,6.40
2019-06-25T21:58:51.825Z,6.87
2019-06-25T22:01:22.500Z,6.30
2019-06-25T22:03:52.006Z,7.03
2019-06-25T22:06:21.041Z,6.57
2019-06-25T22:08:50.057Z,7.10
2019-06-25T22:11:19.006Z,7.70
2019-06-25T22:13:48.026Z,6.30
2019-06-25T22:16:17.074Z,6.23
2019-06-25T22:18:46.092Z,6.80
2019-06-25T22:21:15.154Z,6.70
2019-06-25T22:23:44.154Z,6.30
2019-06-25T22:26:13.097Z,6.70
2019-06-25T22:28:42.201Z,6.20
2019-06-25T22:31:11.188Z,5.80
2019-06-25T22:33:40.288Z,5.80
2019-06-25T22:36:09.292Z,6.33
2019-06-25T22:38:38.340Z,6.20
2019-06-25T22:41:07.269Z,6.80
2019-06-25T22:43:36.284Z,6.30
2019-06-25T22:46:05.318Z,6.20
2019-06-25T22:48:34.313Z,5.90
2019-06-25T22:51:03.341Z,7.50
2019-06-25T22:53:32.285Z,6.10
2019-06-25T22:56:01.354Z,6.53
2019-06-25T22:58:30.310Z,6.00
2019-06-25T23:00:59.536Z,6.27
2019-06-25T23:03:28.549Z,6.10
2019-06-25T23:05:57.700Z,6.33
2019-06-25T23:08:26.810Z,6.57
2019-06-25T23:10:55.932Z,6.70
2019-06-25T23:13:24.851Z,7.00
2019-06-25T23:15:54.134Z,6.50
2019-06-25T23:18:23.064Z,8.13
2019-06-25T23:20:52.168Z,8.07
2019-06-25T23:23:21.243Z,7.20
2019-06-25T23:25:50.342Z,8.27
2019-06-25T23:28:19.518Z,7.27
2019-06-25T23:30:48.636Z,7.60
2019-06-25T23:33:17.641Z,7.30
2019-06-25T23:35:46.735Z,6.83
2019-06-25T23:38:15.643Z,7.90
2019-06-25T23:40:44.621Z,7.30
2019-06-25T23:43:13.728Z,7.63
2019-06-25T23:45:42.764Z,8.57
2019-06-25T23:48:11.808Z,6.80
2019-06-25T23:50:40.883Z,7.70
2019-06-25T23:53:09.867Z,7.80
2019-06-25T23:55:38.785Z,10.00
2019-06-25T23:58:07.897Z,7.97
